Time;durP1;ratioP1;P1;durP2;ratioP2;P2;SDS_P1;SDS_P2;PMS_P1;PMS_P2;Temp;Humidity;BMP_temperature;BMP_pressure;BME280_temperature;BME280_humidity;BME280_pressure;Samples;Min_cycle;Max_cycle;Signal;HPM_P1;HPM_P2
2021/06/30 00:00:06;;;;;;;23.23;21.17;;;21.70;99.90;;;;;;5093980;28;20429;-53
2021/06/30 00:02:39;;;;;;;23.83;21.93;;;21.70;99.90;;;;;;5094254;28;20408;-53
2021/06/30 00:05:07;;;;;;;26.17;23.60;;;21.70;99.90;;;;;;5093905;28;20826;-53
2021/06/30 00:07:34;;;;;;;26.83;24.47;;;21.70;99.90;;;;;;5093742;28;20774;-53
2021/06/30 00:10:01;;;;;;;27.90;25.40;;;21.70;99.90;;;;;;5093545;28;20791;-53
2021/06/30 00:12:28;;;;;;;26.37;23.67;;;21.70;99.90;;;;;;5093502;28;20490;-53
2021/06/30 00:14:56;;;;;;;27.33;24.83;;;21.60;99.90;;;;;;5093706;28;20792;-53
2021/06/30 00:17:24;;;;;;;24.00;22.10;;;21.60;99.90;;;;;;5094153;28;20467;-53
2021/06/30 00:19:51;;;;;;;25.93;23.50;;;21.60;99.90;;;;;;5093356;28;20449;-53
2021/06/30 00:22:17;;;;;;;24.87;22.80;;;21.60;99.90;;;;;;5093646;28;20433;-53
2021/06/30 00:24:44;;;;;;;27.50;25.00;;;21.60;99.90;;;;;;5093540;28;20432;-53
2021/06/30 00:27:11;;;;;;;25.67;23.47;;;21.60;99.90;;;;;;5093395;28;20463;-53
2021/06/30 00:29:38;;;;;;;26.07;23.90;;;21.60;99.90;;;;;;5091705;28;20578;-53
2021/06/30 00:32:05;;;;;;;25.43;23.33;;;21.60;99.90;;;;;;5093153;28;20471;-53
2021/06/30 00:34:34;;;;;;;26.47;24.37;;;21.60;99.90;;;;;;5092445;28;20424;-53
2021/06/30 00:37:00;;;;;;;25.40;23.40;;;21.60;99.90;;;;;;5093254;28;20513;-53
2021/06/30 00:39:27;;;;;;;27.13;24.93;;;21.70;99.90;;;;;;5091503;28;20463;-53
2021/06/30 00:41:57;;;;;;;27.13;24.57;;;21.70;99.90;;;;;;5093509;28;20434;-53
2021/06/30 00:44:23;;;;;;;26.27;24.07;;;21.70;99.90;;;;;;5093428;28;20556;-53
2021/06/30 00:46:50;;;;;;;26.73;24.50;;;21.70;99.90;;;;;;5093441;28;20504;-53
2021/06/30 00:49:17;;;;;;;25.90;23.60;;;21.70;99.90;;;;;;5091398;28;21010;-53
2021/06/30 00:51:45;;;;;;;24.40;22.43;;;21.70;99.90;;;;;;5092742;28;20476;-53
2021/06/30 00:54:11;;;;;;;25.13;23.13;;;21.70;99.90;;;;;;5092984;28;20476;-53
2021/06/30 00:56:38;;;;;;;26.77;24.37;;;21.70;99.90;;;;;;5092927;28;20441;-53
2021/06/30 00:59:05;;;;;;;26.00;23.80;;;21.70;99.90;;;;;;5092314;28;20453;-53
2021/06/30 01:01:31;;;;;;;24.90;22.67;;;21.70;99.90;;;;;;5092871;28;20427;-53
2021/06/30 01:03:58;;;;;;;23.40;21.27;;;21.80;99.90;;;;;;5092704;28;20440;-53
2021/06/30 01:06:25;;;;;;;27.07;24.87;;;21.80;99.90;;;;;;5092655;28;20925;-53
2021/06/30 01:08:53;;;;;;;25.63;23.37;;;21.80;99.90;;;;;;5092227;28;20462;-53
2021/06/30 01:11:20;;;;;;;26.03;23.80;;;21.90;99.90;;;;;;5092678;28;20970;-53
2021/06/30 01:13:47;;;;;;;27.90;25.40;;;21.90;99.90;;;;;;5092467;28;20431;-53
2021/06/30 01:16:14;;;;;;;26.87;24.67;;;21.90;99.90;;;;;;5092497;28;20447;-53
2021/06/30 01:18:41;;;;;;;26.50;24.20;;;21.90;99.90;;;;;;5092186;28;20811;-53
2021/06/30 01:21:10;;;;;;;25.70;23.47;;;21.90;99.90;;;;;;5092443;28;20486;-53
2021/06/30 01:23:39;;;;;;;25.40;23.20;;;21.90;99.90;;;;;;5092909;28;20518;-53
2021/06/30 01:26:06;;;;;;;28.67;26.27;;;21.90;99.90;;;;;;5092527;28;20949;-53
2021/06/30 01:28:33;;;;;;;26.97;24.77;;;21.90;99.90;;;;;;5091902;28;20452;-53
2021/06/30 01:31:00;;;;;;;28.83;26.37;;;21.90;99.90;;;;;;5092174;28;20466;-53
2021/06/30 01:33:27;;;;;;;25.50;23.23;;;21.90;99.90;;;;;;5092125;28;20958;-53
2021/06/30 01:35:54;;;;;;;28.13;24.47;;;21.90;99.90;;;;;;5092211;28;20434;-53
2021/06/30 01:38:22;;;;;;;24.50;22.70;;;21.90;99.90;;;;;;5091694;28;20455;-53
2021/06/30 01:40:52;;;;;;;28.53;26.13;;;21.90;99.90;;;;;;5092448;28;20438;-53
2021/06/30 01:43:19;;;;;;;28.50;25.80;;;21.90;99.90;;;;;;5092063;28;20437;-53
2021/06/30 01:45:46;;;;;;;28.80;26.20;;;21.90;99.90;;;;;;5092127;28;20425;-53
2021/06/30 01:48:13;;;;;;;28.80;26.10;;;21.90;99.90;;;;;;5091511;28;20460;-53
2021/06/30 01:50:40;;;;;;;28.27;25.67;;;21.60;99.90;;;;;;5092367;28;20431;-53
2021/06/30 01:53:06;;;;;;;26.70;24.50;;;21.80;99.90;;;;;;5091726;28;20471;-53
2021/06/30 01:55:35;;;;;;;26.53;24.43;;;21.80;99.90;;;;;;5092268;28;20432;-53
2021/06/30 01:58:04;;;;;;;27.57;25.13;;;21.70;99.90;;;;;;5091215;28;20525;-53
2021/06/30 02:00:31;;;;;;;28.53;26.00;;;21.70;99.90;;;;;;5091641;28;20931;-53
2021/06/30 02:03:00;;;;;;;26.73;24.50;;;21.50;99.90;;;;;;5090505;28;20856;-53
2021/06/30 02:05:30;;;;;;;27.80;25.00;;;21.70;99.90;;;;;;5090787;28;20616;-53
2021/06/30 02:07:59;;;;;;;29.13;26.20;;;21.50;99.90;;;;;;5091405;28;20460;-53
2021/06/30 02:10:28;;;;;;;26.80;24.50;;;21.70;99.90;;;;;;5091460;28;20438;-53
2021/06/30 02:12:54;;;;;;;30.43;27.90;;;21.60;99.90;;;;;;5091571;28;20487;-53
2021/06/30 02:15:24;;;;;;;32.87;29.67;;;21.70;99.90;;;;;;5091604;28;20446;-53
2021/06/30 02:17:51;;;;;;;29.40;26.90;;;21.70;99.90;;;;;;5091177;28;20454;-53
2021/06/30 02:20:19;;;;;;;30.37;27.77;;;21.70;99.90;;;;;;5090943;28;20428;-53
2021/06/30 02:22:47;;;;;;;29.30;26.80;;;21.70;99.90;;;;;;5091413;28;20724;-53
2021/06/30 02:25:16;;;;;;;30.30;27.90;;;21.70;99.90;;;;;;5091276;28;20449;-53
2021/06/30 02:27:44;;;;;;;31.47;28.63;;;21.60;99.90;;;;;;5091259;28;20458;-53
2021/06/30 02:30:13;;;;;;;30.90;28.30;;;21.60;99.90;;;;;;5090820;28;20435;-53
2021/06/30 02:32:42;;;;;;;31.77;29.17;;;21.60;99.90;;;;;;5090992;28;20470;-53
2021/06/30 02:35:10;;;;;;;32.60;29.70;;;21.60;99.90;;;;;;5091005;28;20445;-53
2021/06/30 02:37:38;;;;;;;30.00;27.60;;;21.60;99.90;;;;;;5090979;28;20461;-53
2021/06/30 02:40:07;;;;;;;32.57;29.57;;;21.50;99.90;;;;;;5090727;28;20439;-53
2021/06/30 02:42:34;;;;;;;31.90;29.40;;;21.50;99.90;;;;;;5090949;28;20429;-53
2021/06/30 02:45:01;;;;;;;31.80;28.93;;;21.30;99.90;;;;;;5090907;28;20432;-53
2021/06/30 02:47:27;;;;;;;33.37;30.37;;;21.50;99.90;;;;;;5090581;28;20429;-53
2021/06/30 02:49:55;;;;;;;31.23;28.10;;;21.50;99.90;;;;;;5090742;28;20882;-53
2021/06/30 02:52:22;;;;;;;32.50;29.60;;;21.40;99.90;;;;;;5090802;28;20481;-53
2021/06/30 02:54:49;;;;;;;30.13;27.50;;;21.50;99.90;;;;;;5091002;28;20433;-53
2021/06/30 02:57:16;;;;;;;32.60;29.70;;;21.30;99.90;;;;;;5089819;28;20519;-53
2021/06/30 02:59:43;;;;;;;32.10;29.10;;;21.50;99.90;;;;;;5090359;28;20428;-53
2021/06/30 03:02:09;;;;;;;31.47;28.87;;;21.50;99.90;;;;;;5090418;28;20431;-53
2021/06/30 03:04:36;;;;;;;32.53;29.63;;;21.50;99.90;;;;;;5090430;28;20434;-53
2021/06/30 03:07:04;;;;;;;30.27;27.87;;;21.40;99.90;;;;;;5090414;28;20440;-53
2021/06/30 03:09:31;;;;;;;30.70;27.97;;;21.40;99.90;;;;;;5090147;28;20454;-53
2021/06/30 03:11:57;;;;;;;33.10;29.93;;;21.40;99.90;;;;;;5090509;28;20439;-53
2021/06/30 03:14:24;;;;;;;34.33;31.40;;;21.40;99.90;;;;;;5090526;28;20432;-53
2021/06/30 03:16:51;;;;;;;35.83;32.30;;;21.40;99.90;;;;;;5090416;28;20431;-53
2021/06/30 03:19:17;;;;;;;32.03;29.20;;;21.40;99.90;;;;;;5090030;28;20569;-53
2021/06/30 03:21:44;;;;;;;34.73;31.50;;;21.20;99.90;;;;;;5090319;28;20447;-53
2021/06/30 03:24:12;;;;;;;33.53;30.30;;;21.50;99.90;;;;;;5090374;28;20438;-53
2021/06/30 03:26:39;;;;;;;33.30;30.10;;;21.20;99.90;;;;;;5090079;28;20440;-53
2021/06/30 03:29:05;;;;;;;36.30;33.00;;;21.50;99.90;;;;;;5089707;28;20938;-53
2021/06/30 03:31:33;;;;;;;31.27;28.37;;;21.50;99.90;;;;;;5090306;28;20809;-53
2021/06/30 03:34:00;;;;;;;31.23;28.57;;;21.40;99.90;;;;;;5090307;28;20482;-53
2021/06/30 03:36:27;;;;;;;30.40;27.70;;;21.50;99.90;;;;;;5090343;28;20439;-53
2021/06/30 03:38:54;;;;;;;30.77;27.80;;;21.50;99.90;;;;;;5089948;28;20826;-53
2021/06/30 03:41:23;;;;;;;28.77;26.27;;;21.40;99.90;;;;;;5090362;28;20433;-53
2021/06/30 03:43:49;;;;;;;28.93;26.43;;;21.50;99.90;;;;;;5090520;28;20431;-53
2021/06/30 03:46:16;;;;;;;29.10;26.57;;;21.50;99.90;;;;;;5090466;28;20725;-53
2021/06/30 03:48:43;;;;;;;29.37;26.87;;;21.60;99.90;;;;;;5089861;28;20481;-53
2021/06/30 03:51:09;;;;;;;30.03;27.63;;;21.30;99.90;;;;;;5090262;28;20433;-53
2021/06/30 03:53:36;;;;;;;26.43;24.20;;;21.60;99.90;;;;;;5090234;28;20482;-53
2021/06/30 03:56:03;;;;;;;27.20;24.87;;;21.60;99.90;;;;;;5090019;28;20442;-53
2021/06/30 03:58:31;;;;;;;26.83;24.53;;;21.60;99.90;;;;;;5089786;28;20464;-53
2021/06/30 04:00:58;;;;;;;27.30;24.90;;;21.50;99.90;;;;;;5090074;28;20428;-53
2021/06/30 04:03:25;;;;;;;27.87;25.47;;;21.40;99.90;;;;;;5090287;28;20841;-53
2021/06/30 04:05:52;;;;;;;26.87;24.67;;;21.50;99.90;;;;;;5090177;28;20446;-53
2021/06/30 04:08:18;;;;;;;26.23;23.93;;;21.50;99.90;;;;;;5089742;28;20798;-53
2021/06/30 04:10:45;;;;;;;26.67;24.50;;;21.40;99.90;;;;;;5092563;28;20433;-53
2021/06/30 04:13:15;;;;;;;25.87;23.87;;;21.60;99.90;;;;;;5093730;28;20547;-53
2021/06/30 04:15:43;;;;;;;27.83;25.63;;;21.50;99.90;;;;;;5093496;28;20929;-53
2021/06/30 04:18:11;;;;;;;27.53;25.00;;;21.60;99.90;;;;;;5093361;28;20642;-53
2021/06/30 04:20:40;;;;;;;25.80;23.60;;;21.50;99.90;;;;;;5093499;28;20522;-53
2021/06/30 04:23:07;;;;;;;26.27;24.00;;;21.50;99.90;;;;;;5093400;28;21028;-53
2021/06/30 04:25:34;;;;;;;25.57;23.43;;;21.50;99.90;;;;;;5093412;28;20431;-53
2021/06/30 04:28:01;;;;;;;24.30;22.40;;;21.60;99.90;;;;;;5093178;28;20457;-53
2021/06/30 04:30:27;;;;;;;24.43;22.33;;;21.40;99.90;;;;;;5093424;28;20444;-53
2021/06/30 04:32:55;;;;;;;24.03;21.93;;;21.60;99.90;;;;;;5093446;28;20467;-53
2021/06/30 04:35:22;;;;;;;26.40;24.13;;;21.60;99.90;;;;;;5093405;28;20491;-52
2021/06/30 04:37:48;;;;;;;25.43;23.33;;;21.70;99.90;;;;;;5093119;28;20461;-52
2021/06/30 04:40:15;;;;;;;23.90;21.83;;;21.70;99.90;;;;;;5093218;28;20429;-52
2021/06/30 04:42:42;;;;;;;28.70;26.10;;;21.40;99.90;;;;;;5093237;28;20913;-52
2021/06/30 04:45:09;;;;;;;30.10;27.27;;;21.50;99.90;;;;;;5093184;28;20432;-53
2021/06/30 04:47:36;;;;;;;29.57;26.87;;;21.40;99.90;;;;;;5115886;22;20499;-53
2021/06/30 04:50:04;;;;;;;30.30;27.40;;;21.30;99.90;;;;;;5053338;28;20451;-53
2021/06/30 04:52:31;;;;;;;31.20;28.20;;;21.70;99.90;;;;;;5053358;28;20667;-54
2021/06/30 04:54:57;;;;;;;32.10;29.20;;;21.30;99.90;;;;;;5053437;28;20435;-54
2021/06/30 04:57:24;;;;;;;28.90;26.10;;;21.10;99.90;;;;;;5053527;28;20436;-52
2021/06/30 04:59:51;;;;;;;27.77;25.17;;;21.20;99.90;;;;;;5052985;28;20441;-53
2021/06/30 05:02:17;;;;;;;24.97;22.77;;;21.10;99.90;;;;;;5053375;28;20449;-53
2021/06/30 05:04:44;;;;;;;25.73;23.33;;;21.10;99.90;;;;;;5053120;28;20438;-53
2021/06/30 05:07:12;;;;;;;26.30;24.00;;;20.90;99.90;;;;;;5053029;28;20930;-53
2021/06/30 05:13:04;;;;;;;26.50;24.00;;;21.10;99.90;;;;;;5053278;28;20561;-53
2021/06/30 05:15:30;;;;;;;25.00;22.80;;;21.10;99.90;;;;;;5053217;28;20919;-53
2021/06/30 05:17:57;;;;;;;22.73;20.80;;;21.30;99.90;;;;;;5052892;28;20879;-53
2021/06/30 05:20:23;;;;;;;19.90;18.30;;;21.10;99.90;;;;;;5052942;28;20433;-53
2021/06/30 05:22:51;;;;;;;21.73;19.70;;;21.10;99.90;;;;;;5052498;28;20433;-53
2021/06/30 05:25:18;;;;;;;21.77;19.93;;;21.10;99.90;;;;;;5052685;28;20425;-53
2021/06/30 05:27:45;;;;;;;20.67;18.97;;;21.10;99.90;;;;;;5052671;28;20456;-52
2021/06/30 05:30:12;;;;;;;19.50;17.70;;;21.10;99.90;;;;;;5052144;28;20438;-52
2021/06/30 05:32:39;;;;;;;21.00;19.20;;;21.10;99.90;;;;;;5034372;28;20459;-53
2021/06/30 05:35:07;;;;;;;21.90;19.90;;;21.10;99.90;;;;;;5052400;28;20447;-53
2021/06/30 05:37:33;;;;;;;20.23;18.43;;;21.10;99.90;;;;;;5052184;28;20440;-53
2021/06/30 05:40:01;;;;;;;22.37;20.37;;;21.10;99.90;;;;;;5052311;28;20431;-53
2021/06/30 05:42:28;;;;;;;22.10;20.20;;;21.10;99.90;;;;;;5052001;28;20444;-53
2021/06/30 05:44:55;;;;;;;20.60;18.90;;;21.10;99.90;;;;;;5052198;28;20530;-53
2021/06/30 05:47:22;;;;;;;21.70;19.70;;;21.10;99.90;;;;;;5052297;28;20428;-52
2021/06/30 05:49:49;;;;;;;22.87;20.63;;;21.10;99.90;;;;;;5051790;28;20563;-53
2021/06/30 05:52:16;;;;;;;22.10;19.90;;;21.60;99.90;;;;;;5051697;28;20864;-53
2021/06/30 05:54:42;;;;;;;20.83;19.00;;;21.20;99.90;;;;;;5051810;28;20478;-53
2021/06/30 05:57:10;;;;;;;22.07;18.87;;;21.20;99.90;;;;;;5051900;28;20427;-53
2021/06/30 05:59:37;;;;;;;16.93;15.53;;;21.20;99.90;;;;;;5051587;28;20459;-53
2021/06/30 06:02:04;;;;;;;18.97;17.33;;;21.20;99.90;;;;;;5051756;28;20442;-53
2021/06/30 06:04:31;;;;;;;19.63;17.87;;;21.20;99.90;;;;;;5051741;28;20788;-53
2021/06/30 06:06:58;;;;;;;20.27;18.43;;;21.20;99.90;;;;;;5051514;28;20441;-52
2021/06/30 06:09:25;;;;;;;18.17;16.50;;;21.20;99.90;;;;;;5033764;28;20594;-53
2021/06/30 06:11:52;;;;;;;16.83;15.40;;;21.20;99.90;;;;;;5052054;28;20436;-52
2021/06/30 06:14:20;;;;;;;17.60;16.00;;;21.20;99.90;;;;;;5051836;28;20485;-53
2021/06/30 06:16:46;;;;;;;18.07;16.60;;;21.20;99.90;;;;;;5051929;28;20435;-53
2021/06/30 06:19:13;;;;;;;16.90;15.40;;;21.10;99.90;;;;;;5051180;28;20452;-53
2021/06/30 06:21:40;;;;;;;16.53;15.13;;;21.10;99.90;;;;;;5051739;28;20435;-53
2021/06/30 06:24:06;;;;;;;17.20;15.80;;;21.10;99.90;;;;;;5033326;28;20550;-53
2021/06/30 06:26:33;;;;;;;16.77;15.33;;;21.10;99.90;;;;;;5033398;28;20956;-54
2021/06/30 06:29:00;;;;;;;16.07;14.67;;;20.70;99.90;;;;;;5051152;28;20453;-54
2021/06/30 06:31:28;;;;;;;14.67;13.53;;;21.10;99.90;;;;;;5051446;28;20547;-53
2021/06/30 06:33:55;;;;;;;21.30;16.87;;;21.10;99.90;;;;;;5050543;28;20563;-54
2021/06/30 06:36:22;;;;;;;16.47;15.13;;;21.10;99.90;;;;;;5051282;28;20438;-54
2021/06/30 06:38:49;;;;;;;16.23;14.60;;;21.20;99.90;;;;;;5050674;28;20470;-54
2021/06/30 06:41:16;;;;;;;16.67;14.93;;;21.20;99.90;;;;;;5051568;28;20434;-53
2021/06/30 06:43:43;;;;;;;13.40;12.30;;;21.20;99.90;;;;;;5051012;28;20436;-54
2021/06/30 06:46:10;;;;;;;17.90;16.10;;;21.20;99.90;;;;;;5033090;28;20944;-54
2021/06/30 06:48:38;;;;;;;16.30;14.90;;;21.30;99.90;;;;;;5050995;28;20483;-54
2021/06/30 06:51:07;;;;;;;16.33;14.87;;;21.30;99.90;;;;;;5051542;28;20432;-53
2021/06/30 06:53:34;;;;;;;17.63;16.00;;;21.30;99.90;;;;;;5051330;28;20552;-54
2021/06/30 06:56:02;;;;;;;15.57;13.50;;;21.30;99.90;;;;;;5051152;28;20436;-53
2021/06/30 06:58:29;;;;;;;14.30;13.10;;;21.40;99.90;;;;;;5032675;28;20488;-54
2021/06/30 07:00:55;;;;;;;16.30;14.73;;;21.40;99.90;;;;;;5051087;28;20900;-53
2021/06/30 07:03:22;;;;;;;15.50;14.10;;;21.40;99.90;;;;;;5050638;28;20436;-53
2021/06/30 07:05:50;;;;;;;15.03;13.67;;;21.40;99.90;;;;;;5051120;28;20436;-53
2021/06/30 07:08:17;;;;;;;15.87;14.47;;;21.40;99.90;;;;;;5050633;28;20460;-53
2021/06/30 07:10:43;;;;;;;17.90;14.23;;;21.40;99.90;;;;;;5050713;28;20495;-53
2021/06/30 07:13:10;;;;;;;14.37;13.13;;;21.40;99.90;;;;;;5051123;28;20466;-54
2021/06/30 07:15:40;;;;;;;15.73;14.30;;;21.40;99.90;;;;;;5050775;28;20523;-53
2021/06/30 07:18:06;;;;;;;14.57;13.20;;;21.40;99.90;;;;;;5050795;28;20468;-53
2021/06/30 07:20:33;;;;;;;13.90;12.50;;;21.30;99.90;;;;;;5050653;28;20456;-53
2021/06/30 07:23:01;;;;;;;16.43;14.83;;;21.40;99.90;;;;;;5050561;28;20437;-53
2021/06/30 07:25:28;;;;;;;16.77;14.27;;;21.30;99.90;;;;;;5049825;28;20484;-53
2021/06/30 07:27:55;;;;;;;13.63;12.60;;;21.30;99.90;;;;;;5050487;28;20452;-53
2021/06/30 07:30:21;;;;;;;12.63;11.13;;;21.30;99.90;;;;;;5050352;28;20440;-52
2021/06/30 07:32:48;;;;;;;15.07;13.67;;;21.30;99.90;;;;;;5050854;28;20521;-52
2021/06/30 07:35:15;;;;;;;16.43;14.77;;;21.30;99.90;;;;;;5050372;28;20595;-52
2021/06/30 07:37:42;;;;;;;15.63;14.20;;;21.30;99.90;;;;;;5051104;28;20452;-52
2021/06/30 07:40:11;;;;;;;13.83;12.50;;;21.40;99.90;;;;;;5032575;28;20433;-52
2021/06/30 07:42:38;;;;;;;14.73;13.53;;;21.30;99.90;;;;;;5050904;28;20444;-52
2021/06/30 07:45:05;;;;;;;13.10;12.00;;;21.30;99.90;;;;;;5053293;28;20531;-51
2021/06/30 07:47:32;;;;;;;12.83;11.30;;;21.30;99.90;;;;;;5036253;28;20453;-52
2021/06/30 07:50:01;;;;;;;13.90;12.50;;;21.30;99.90;;;;;;5054466;28;20436;-53
2021/06/30 07:52:27;;;;;;;15.60;13.40;;;21.30;99.90;;;;;;5054364;28;21013;-53
2021/06/30 07:54:54;;;;;;;13.43;12.03;;;21.30;99.90;;;;;;5053697;28;20485;-53
2021/06/30 07:57:22;;;;;;;17.20;13.40;;;21.30;99.90;;;;;;5054276;28;20433;-53
2021/06/30 07:59:49;;;;;;;12.70;11.50;;;21.40;99.90;;;;;;5053651;28;20499;-53
2021/06/30 08:02:16;;;;;;;16.50;14.90;;;21.30;99.90;;;;;;5054344;28;20450;-53
2021/06/30 08:04:43;;;;;;;15.87;14.20;;;21.30;99.90;;;;;;5053979;28;20528;-51
2021/06/30 08:07:10;;;;;;;16.67;14.87;;;21.30;99.90;;;;;;5054315;28;20448;-52
2021/06/30 08:09:37;;;;;;;13.00;11.80;;;21.30;99.90;;;;;;5053664;28;20452;-52
2021/06/30 08:12:05;;;;;;;14.23;12.90;;;21.30;99.90;;;;;;5054086;28;20452;-52
2021/06/30 08:14:34;;;;;;;13.60;12.30;;;21.30;99.90;;;;;;5054141;28;20485;-53
2021/06/30 08:17:01;;;;;;;13.23;11.20;;;21.40;99.90;;;;;;5054242;28;20884;-52
2021/06/30 08:19:27;;;;;;;11.63;10.67;;;21.30;99.90;;;;;;5035463;28;20483;-52
2021/06/30 08:21:54;;;;;;;14.17;12.87;;;21.40;99.90;;;;;;5053971;28;20424;-53
2021/06/30 08:24:21;;;;;;;14.10;12.70;;;21.40;99.90;;;;;;5053499;28;20491;-53
2021/06/30 08:26:48;;;;;;;12.93;11.73;;;21.40;99.90;;;;;;5053429;28;20474;-53
2021/06/30 08:30:10;;;;;;;10.63;9.63;;;21.40;99.90;;;;;;5053657;28;20829;-54
2021/06/30 08:32:40;;;;;;;12.10;10.90;;;21.50;99.90;;;;;;5053671;28;20512;-52
2021/06/30 09:17:14;;;;;;;14.03;12.70;;;21.50;99.90;;;;;;5052904;28;20411;-53
2021/06/30 09:20:06;;;;;;;13.03;11.87;;;21.40;99.90;;;;;;5052725;28;20467;-53
2021/06/30 09:22:47;;;;;;;13.33;11.93;;;21.40;99.90;;;;;;5048496;28;20460;-53
2021/06/30 09:25:35;;;;;;;13.47;11.87;;;21.40;99.90;;;;;;5035225;28;20441;-53
2021/06/30 09:28:22;;;;;;;13.00;11.70;;;21.40;99.90;;;;;;5046692;28;21021;-53
2021/06/30 09:30:59;;;;;;;13.37;11.97;;;21.30;99.90;;;;;;5052301;28;20436;-53
2021/06/30 09:33:45;;;;;;;12.53;11.33;;;21.30;99.90;;;;;;5052527;28;20440;-53
2021/06/30 09:36:13;;;;;;;11.83;10.80;;;21.30;99.90;;;;;;5052272;28;20866;-53
2021/06/30 09:38:42;;;;;;;10.50;9.60;;;21.30;99.90;;;;;;5052101;28;20468;-53
2021/06/30 09:41:09;;;;;;;11.37;10.30;;;21.30;99.90;;;;;;5052385;28;20465;-53
2021/06/30 09:43:36;;;;;;;9.60;8.60;;;21.30;99.90;;;;;;5052283;28;20514;-53
2021/06/30 09:46:17;;;;;;;12.13;9.80;;;21.30;99.90;;;;;;5052238;28;20555;-53
2021/06/30 09:48:53;;;;;;;10.87;8.80;;;21.30;99.90;;;;;;5051827;28;20465;-53
2021/06/30 09:51:19;;;;;;;10.10;9.20;;;21.40;99.90;;;;;;5051951;28;20454;-53
2021/06/30 09:53:46;;;;;;;7.10;6.50;;;21.40;99.90;;;;;;5051888;28;20433;-53
2021/06/30 09:56:32;;;;;;;6.97;6.37;;;21.40;99.90;;;;;;5051686;28;20438;-52
2021/06/30 09:59:01;;;;;;;7.57;6.87;;;21.40;99.90;;;;;;5051647;28;20841;-53
2021/06/30 10:01:28;;;;;;;8.10;7.30;;;21.40;99.90;;;;;;5051926;28;20450;-52
2021/06/30 10:03:56;;;;;;;8.30;7.50;;;21.40;99.90;;;;;;5052116;28;20436;-53
2021/06/30 10:06:27;;;;;;;8.20;7.50;;;21.50;99.90;;;;;;5051804;28;20472;-53
2021/06/30 10:08:56;;;;;;;7.27;6.57;;;21.50;99.90;;;;;;5051429;28;20461;-53
2021/06/30 10:11:23;;;;;;;8.90;8.10;;;21.50;99.90;;;;;;5051621;28;20533;-52
2021/06/30 10:13:50;;;;;;;9.80;8.87;;;21.60;99.90;;;;;;5051691;28;20440;-52
2021/06/30 10:16:19;;;;;;;10.00;9.17;;;21.60;99.90;;;;;;5051684;28;20438;-53
2021/06/30 10:18:47;;;;;;;9.70;8.80;;;21.70;99.90;;;;;;5051552;28;20853;-52
2021/06/30 10:21:17;;;;;;;8.57;7.87;;;21.70;99.90;;;;;;5051557;28;20428;-53
2021/06/30 10:23:44;;;;;;;8.03;6.90;;;21.80;99.90;;;;;;5051242;28;20453;-52
2021/06/30 10:26:12;;;;;;;7.77;7.07;;;21.80;99.90;;;;;;5051491;28;20430;-53
2021/06/30 10:28:39;;;;;;;8.93;6.70;;;21.90;99.90;;;;;;5051203;28;20616;-53
2021/06/30 10:31:06;;;;;;;7.70;7.07;;;21.90;99.90;;;;;;5051496;28;20445;-51
2021/06/30 10:33:37;;;;;;;8.30;7.60;;;21.90;99.90;;;;;;5051380;28;20449;-53
2021/06/30 10:36:05;;;;;;;10.00;9.10;;;21.90;99.90;;;;;;5033074;28;20576;-52
2021/06/30 10:38:51;;;;;;;10.53;9.53;;;21.90;99.90;;;;;;5050994;28;20489;-53
2021/06/30 10:41:41;;;;;;;11.37;10.40;;;21.90;99.90;;;;;;5051335;28;20431;-53
2021/06/30 10:44:10;;;;;;;12.80;11.50;;;21.90;99.90;;;;;;5051287;28;20477;-53
2021/06/30 10:46:37;;;;;;;12.97;11.67;;;21.60;99.90;;;;;;5051037;28;20804;-53
2021/06/30 10:49:36;;;;;;;11.90;10.90;;;21.80;99.90;;;;;;5096563;22;20500;-55
2021/06/30 10:52:04;;;;;;;12.00;11.00;;;21.80;99.90;;;;;;5091282;28;20449;-55
2021/06/30 10:54:44;;;;;;;9.87;9.00;;;21.80;99.90;;;;;;5091370;28;20472;-55
2021/06/30 10:57:31;;;;;;;10.20;9.20;;;21.80;99.90;;;;;;5091524;28;20446;-54
2021/06/30 11:00:16;;;;;;;9.00;8.20;;;21.80;99.90;;;;;;5091152;28;20458;-56
2021/06/30 11:02:43;;;;;;;8.13;7.53;;;21.90;99.90;;;;;;5090847;28;20462;-55
2021/06/30 11:05:33;;;;;;;10.43;9.53;;;21.90;99.90;;;;;;5091520;28;20535;-54
2021/06/30 11:07:59;;;;;;;12.33;11.23;;;21.90;99.90;;;;;;5090945;28;20442;-53
2021/06/30 11:10:53;;;;;;;12.60;11.50;;;21.90;99.90;;;;;;5091191;28;20440;-56
2021/06/30 11:13:20;;;;;;;13.83;12.63;;;21.90;99.90;;;;;;5091331;28;20529;-56
2021/06/30 11:15:47;;;;;;;12.37;11.37;;;21.80;99.90;;;;;;5091010;28;20842;-55
2021/06/30 11:18:44;;;;;;;13.50;12.40;;;21.80;99.90;;;;;;5091055;28;20806;-55
2021/06/30 11:21:12;;;;;;;13.40;12.27;;;21.80;99.90;;;;;;5094237;28;20443;-55
2021/06/30 11:23:43;;;;;;;14.03;12.97;;;21.60;99.90;;;;;;5095646;28;20478;-55
2021/06/30 11:26:36;;;;;;;15.40;13.90;;;21.60;99.90;;;;;;5094690;28;20428;-55
2021/06/30 11:29:44;;;;;;;16.10;13.97;;;21.60;99.90;;;;;;5090250;28;20465;-55
2021/06/30 11:32:31;;;;;;;16.90;15.30;;;21.50;99.90;;;;;;5095655;28;20431;-57
2021/06/30 11:35:00;;;;;;;17.03;15.50;;;21.50;99.90;;;;;;5095035;28;20574;-55
2021/06/30 11:37:27;;;;;;;12.70;11.77;;;21.50;99.90;;;;;;5094818;28;20984;-54
2021/06/30 11:39:56;;;;;;;14.60;13.40;;;21.40;99.90;;;;;;5094321;28;21031;-54
2021/06/30 11:42:30;;;;;;;15.90;14.57;;;21.40;99.90;;;;;;5094784;28;20542;-55
2021/06/30 11:44:57;;;;;;;14.90;13.67;;;21.50;99.90;;;;;;5094824;28;20879;-55
2021/06/30 11:47:24;;;;;;;15.33;14.03;;;21.40;99.90;;;;;;5094756;28;20430;-56
2021/06/30 11:50:00;;;;;;;14.27;13.07;;;21.40;99.90;;;;;;5094750;28;20467;-55
2021/06/30 11:52:29;;;;;;;13.57;12.47;;;21.30;99.90;;;;;;5095229;28;20716;-55
2021/06/30 11:54:57;;;;;;;13.87;12.77;;;21.30;99.90;;;;;;5093589;28;20484;-55
2021/06/30 11:57:23;;;;;;;15.20;13.80;;;21.40;99.90;;;;;;5094715;28;20436;-54
2021/06/30 12:00:01;;;;;;;14.23;13.03;;;21.40;99.90;;;;;;5093896;28;20456;-56
2021/06/30 12:02:44;;;;;;;15.77;14.17;;;21.40;99.90;;;;;;5094509;28;20522;-56
2021/06/30 12:05:12;;;;;;;13.40;12.30;;;21.40;99.90;;;;;;5094798;28;20454;-56
2021/06/30 12:07:44;;;;;;;14.90;13.70;;;21.40;99.90;;;;;;5094085;28;20448;-55
2021/06/30 12:10:12;;;;;;;15.57;14.37;;;21.50;99.90;;;;;;5094098;28;20446;-54
2021/06/30 12:12:39;;;;;;;14.50;13.30;;;21.50;99.90;;;;;;5094350;28;20445;-56
2021/06/30 12:15:08;;;;;;;14.30;12.80;;;21.60;99.90;;;;;;5092276;28;20467;-54
2021/06/30 12:17:35;;;;;;;13.10;12.00;;;21.60;99.90;;;;;;5093743;28;20880;-56
2021/06/30 12:20:05;;;;;;;14.13;13.00;;;21.70;99.90;;;;;;5093748;28;20551;-55
2021/06/30 12:22:34;;;;;;;14.10;12.80;;;21.70;99.90;;;;;;5092517;28;20450;-54
2021/06/30 12:25:04;;;;;;;12.23;11.17;;;21.70;99.90;;;;;;5093777;28;20481;-55
2021/06/30 12:27:33;;;;;;;12.43;11.43;;;21.70;99.90;;;;;;5092712;28;20533;-55
2021/06/30 12:30:03;;;;;;;11.70;10.80;;;21.70;99.90;;;;;;5092459;28;20467;-54
2021/06/30 12:32:30;;;;;;;10.03;9.20;;;21.70;99.90;;;;;;5093981;28;20439;-54
2021/06/30 12:35:00;;;;;;;11.30;10.20;;;21.70;99.90;;;;;;5093790;28;20976;-55
2021/06/30 12:37:27;;;;;;;9.73;9.03;;;21.70;99.90;;;;;;5093803;28;20858;-55
2021/06/30 12:39:56;;;;;;;11.30;9.23;;;21.70;99.90;;;;;;5092738;28;21003;-55
2021/06/30 12:42:42;;;;;;;6.80;6.30;;;21.70;99.90;;;;;;5096798;28;20532;-56
2021/06/30 12:45:11;;;;;;;7.00;6.40;;;21.70;99.90;;;;;;5093372;28;20420;-56
2021/06/30 12:47:49;;;;;;;5.93;5.43;;;21.60;99.90;;;;;;5093384;28;20489;-54
2021/06/30 12:50:15;;;;;;;8.10;5.67;;;21.60;99.90;;;;;;5092866;28;20515;-56
2021/06/30 12:52:44;;;;;;;5.83;5.30;;;21.50;99.90;;;;;;5093521;28;20446;-55
2021/06/30 12:55:13;;;;;;;6.30;5.70;;;21.50;99.90;;;;;;5093031;28;20560;-54
2021/06/30 12:58:01;;;;;;;6.10;5.60;;;21.50;99.90;;;;;;5093124;28;20913;-55
2021/06/30 13:00:29;;;;;;;6.07;5.57;;;21.50;99.90;;;;;;5092975;28;20436;-55
2021/06/30 13:03:18;;;;;;;7.20;6.03;;;21.40;99.90;;;;;;5093093;28;20436;-56
2021/06/30 13:05:47;;;;;;;7.70;5.17;;;21.40;99.90;;;;;;5093052;28;20419;-55
2021/06/30 13:08:31;;;;;;;5.50;4.97;;;21.40;99.90;;;;;;5092921;28;20448;-55
2021/06/30 13:11:10;;;;;;;5.63;4.93;;;21.40;99.90;;;;;;5093298;28;20441;-56
2021/06/30 13:13:57;;;;;;;5.77;5.27;;;21.30;99.90;;;;;;5092704;28;20448;-56
2021/06/30 13:16:25;;;;;;;7.50;5.13;;;21.30;99.90;;;;;;5093143;28;20551;-57
2021/06/30 13:18:55;;;;;;;6.63;5.77;;;21.30;99.90;;;;;;5091208;28;20470;-56
2021/06/30 13:21:23;;;;;;;6.03;5.43;;;21.30;99.90;;;;;;5092721;28;20447;-55
2021/06/30 13:23:54;;;;;;;7.43;6.43;;;21.20;99.90;;;;;;5093026;28;20436;-56
2021/06/30 13:26:42;;;;;;;7.97;7.27;;;21.30;99.90;;;;;;5091476;28;20490;-57